sensor_id;sensor_type;location;lat;lon;timestamp;P1;durP1;ratioP1;P2;durP2;ratioP2
73693;SDS011;61997;53.974;11.670;2023-07-08T00:00:19;5.53;;;3.53;;
73693;SDS011;61997;53.974;11.670;2023-07-08T00:02:46;6.18;;;3.80;;
73693;SDS011;61997;53.974;11.670;2023-07-08T00:05:13;5.10;;;3.60;;
73693;SDS011;61997;53.974;11.670;2023-07-08T00:07:40;5.63;;;3.88;;
73693;SDS011;61997;53.974;11.670;2023-07-08T00:10:13;5.18;;;3.60;;
73693;SDS011;61997;53.974;11.670;2023-07-08T00:12:41;6.45;;;3.50;;
73693;SDS011;61997;53.974;11.670;2023-07-08T00:15:08;4.43;;;3.75;;
73693;SDS011;61997;53.974;11.670;2023-07-08T00:17:35;5.45;;;3.67;;
73693;SDS011;61997;53.974;11.670;2023-07-08T00:20:00;6.28;;;3.65;;
73693;SDS011;61997;53.974;11.670;2023-07-08T00:22:26;5.60;;;3.38;;
73693;SDS011;61997;53.974;11.670;2023-07-08T00:24:52;5.82;;;3.55;;
73693;SDS011;61997;53.974;11.670;2023-07-08T00:27:18;5.30;;;3.35;;
73693;SDS011;61997;53.974;11.670;2023-07-08T00:29:44;4.43;;;3.55;;
73693;SDS011;61997;53.974;11.670;2023-07-08T00:32:12;4.55;;;3.33;;
73693;SDS011;61997;53.974;11.670;2023-07-08T00:34:40;5.10;;;3.58;;
73693;SDS011;61997;53.974;11.670;2023-07-08T00:37:10;6.45;;;3.60;;
73693;SDS011;61997;53.974;11.670;2023-07-08T00:39:36;4.68;;;3.50;;
73693;SDS011;61997;53.974;11.670;2023-07-08T00:42:02;4.63;;;3.38;;
73693;SDS011;61997;53.974;11.670;2023-07-08T00:44:36;4.80;;;3.53;;
73693;SDS011;61997;53.974;11.670;2023-07-08T00:47:02;4.85;;;3.33;;
73693;SDS011;61997;53.974;11.670;2023-07-08T00:49:37;5.80;;;3.22;;
73693;SDS011;61997;53.974;11.670;2023-07-08T00:54:48;6.35;;;3.80;;
73693;SDS011;61997;53.974;11.670;2023-07-08T00:57:14;6.18;;;3.42;;
73693;SDS011;61997;53.974;11.670;2023-07-08T00:59:44;4.65;;;3.30;;
73693;SDS011;61997;53.974;11.670;2023-07-08T01:02:13;6.20;;;3.40;;
73693;SDS011;61997;53.974;11.670;2023-07-08T01:04:49;4.47;;;3.20;;
73693;SDS011;61997;53.974;11.670;2023-07-08T01:07:18;4.90;;;3.15;;
73693;SDS011;61997;53.974;11.670;2023-07-08T01:09:46;4.68;;;3.67;;
73693;SDS011;61997;53.974;11.670;2023-07-08T01:12:14;4.95;;;3.28;;
73693;SDS011;61997;53.974;11.670;2023-07-08T01:14:41;5.90;;;3.33;;
73693;SDS011;61997;53.974;11.670;2023-07-08T01:17:08;5.45;;;3.33;;
73693;SDS011;61997;53.974;11.670;2023-07-08T01:19:42;5.72;;;3.88;;
73693;SDS011;61997;53.974;11.670;2023-07-08T01:22:08;5.18;;;3.65;;
73693;SDS011;61997;53.974;11.670;2023-07-08T01:24:35;4.53;;;3.55;;
73693;SDS011;61997;53.974;11.670;2023-07-08T01:27:03;4.15;;;3.22;;
73693;SDS011;61997;53.974;11.670;2023-07-08T01:29:30;5.22;;;3.60;;
73693;SDS011;61997;53.974;11.670;2023-07-08T01:31:57;4.93;;;3.00;;
73693;SDS011;61997;53.974;11.670;2023-07-08T01:34:23;3.83;;;2.85;;
73693;SDS011;61997;53.974;11.670;2023-07-08T01:36:49;4.50;;;3.33;;
73693;SDS011;61997;53.974;11.670;2023-07-08T01:39:18;4.82;;;3.22;;
73693;SDS011;61997;53.974;11.670;2023-07-08T01:41:45;5.10;;;3.35;;
73693;SDS011;61997;53.974;11.670;2023-07-08T01:44:31;5.45;;;3.53;;
73693;SDS011;61997;53.974;11.670;2023-07-08T01:47:19;5.00;;;3.10;;
73693;SDS011;61997;53.974;11.670;2023-07-08T01:49:46;3.78;;;3.03;;
73693;SDS011;61997;53.974;11.670;2023-07-08T01:52:12;4.85;;;2.75;;
73693;SDS011;61997;53.974;11.670;2023-07-08T01:54:40;6.05;;;3.30;;
73693;SDS011;61997;53.974;11.670;2023-07-08T01:57:05;5.95;;;3.42;;
73693;SDS011;61997;53.974;11.670;2023-07-08T01:59:30;4.43;;;2.97;;
73693;SDS011;61997;53.974;11.670;2023-07-08T02:01:56;3.78;;;2.92;;
73693;SDS011;61997;53.974;11.670;2023-07-08T02:04:21;5.10;;;3.38;;
73693;SDS011;61997;53.974;11.670;2023-07-08T02:06:55;3.53;;;3.10;;
73693;SDS011;61997;53.974;11.670;2023-07-08T02:09:22;3.75;;;2.90;;
73693;SDS011;61997;53.974;11.670;2023-07-08T02:11:48;5.45;;;3.22;;
73693;SDS011;61997;53.974;11.670;2023-07-08T02:14:13;4.00;;;3.05;;
73693;SDS011;61997;53.974;11.670;2023-07-08T02:16:38;4.30;;;2.72;;
73693;SDS011;61997;53.974;11.670;2023-07-08T02:19:04;4.00;;;2.90;;
73693;SDS011;61997;53.974;11.670;2023-07-08T02:21:30;3.83;;;2.70;;
73693;SDS011;61997;53.974;11.670;2023-07-08T02:23:56;3.95;;;3.30;;
73693;SDS011;61997;53.974;11.670;2023-07-08T02:26:21;4.30;;;3.08;;
73693;SDS011;61997;53.974;11.670;2023-07-08T02:28:47;4.13;;;3.00;;
73693;SDS011;61997;53.974;11.670;2023-07-08T02:31:12;4.45;;;3.05;;
73693;SDS011;61997;53.974;11.670;2023-07-08T02:33:38;4.57;;;2.80;;
73693;SDS011;61997;53.974;11.670;2023-07-08T02:36:03;4.93;;;2.83;;
73693;SDS011;61997;53.974;11.670;2023-07-08T02:38:28;4.32;;;3.10;;
73693;SDS011;61997;53.974;11.670;2023-07-08T02:40:54;4.15;;;2.97;;
73693;SDS011;61997;53.974;11.670;2023-07-08T02:43:19;4.78;;;3.03;;
73693;SDS011;61997;53.974;11.670;2023-07-08T02:45:45;4.22;;;2.70;;
73693;SDS011;61997;53.974;11.670;2023-07-08T02:48:10;3.85;;;3.05;;
73693;SDS011;61997;53.974;11.670;2023-07-08T02:50:36;3.70;;;2.80;;
73693;SDS011;61997;53.974;11.670;2023-07-08T02:53:01;3.97;;;2.83;;
73693;SDS011;61997;53.974;11.670;2023-07-08T02:55:26;3.38;;;2.67;;
73693;SDS011;61997;53.974;11.670;2023-07-08T02:57:52;4.95;;;3.00;;
73693;SDS011;61997;53.974;11.670;2023-07-08T03:00:17;4.97;;;3.40;;
73693;SDS011;61997;53.974;11.670;2023-07-08T03:02:43;4.72;;;3.00;;
73693;SDS011;61997;53.974;11.670;2023-07-08T03:05:08;3.47;;;2.72;;
73693;SDS011;61997;53.974;11.670;2023-07-08T03:07:33;3.15;;;2.60;;
73693;SDS011;61997;53.974;11.670;2023-07-08T03:09:59;5.50;;;3.13;;
73693;SDS011;61997;53.974;11.670;2023-07-08T03:12:24;4.57;;;3.00;;
73693;SDS011;61997;53.974;11.670;2023-07-08T03:14:50;3.63;;;2.78;;
73693;SDS011;61997;53.974;11.670;2023-07-08T03:17:15;4.70;;;2.80;;
73693;SDS011;61997;53.974;11.670;2023-07-08T03:19:42;4.07;;;3.30;;
73693;SDS011;61997;53.974;11.670;2023-07-08T03:22:08;4.78;;;3.40;;
73693;SDS011;61997;53.974;11.670;2023-07-08T03:24:33;4.13;;;3.13;;
73693;SDS011;61997;53.974;11.670;2023-07-08T03:26:59;4.57;;;2.85;;
73693;SDS011;61997;53.974;11.670;2023-07-08T03:29:29;4.13;;;2.80;;
73693;SDS011;61997;53.974;11.670;2023-07-08T03:31:55;4.35;;;2.85;;
73693;SDS011;61997;53.974;11.670;2023-07-08T03:34:20;4.85;;;3.00;;
73693;SDS011;61997;53.974;11.670;2023-07-08T03:36:49;4.32;;;3.38;;
73693;SDS011;61997;53.974;11.670;2023-07-08T03:39:16;5.35;;;2.95;;
73693;SDS011;61997;53.974;11.670;2023-07-08T03:41:43;4.38;;;2.90;;
73693;SDS011;61997;53.974;11.670;2023-07-08T03:44:08;4.00;;;3.15;;
73693;SDS011;61997;53.974;11.670;2023-07-08T03:46:34;4.22;;;2.88;;
73693;SDS011;61997;53.974;11.670;2023-07-08T03:48:59;4.13;;;3.03;;
73693;SDS011;61997;53.974;11.670;2023-07-08T03:51:26;3.45;;;2.63;;
73693;SDS011;61997;53.974;11.670;2023-07-08T03:53:54;4.93;;;3.17;;
73693;SDS011;61997;53.974;11.670;2023-07-08T03:56:19;4.78;;;2.75;;
73693;SDS011;61997;53.974;11.670;2023-07-08T03:58:45;4.35;;;2.80;;
73693;SDS011;61997;53.974;11.670;2023-07-08T04:01:17;4.25;;;3.15;;
73693;SDS011;61997;53.974;11.670;2023-07-08T04:06:10;3.53;;;2.80;;
73693;SDS011;61997;53.974;11.670;2023-07-08T04:08:36;3.45;;;2.38;;
73693;SDS011;61997;53.974;11.670;2023-07-08T04:11:01;3.97;;;2.80;;
73693;SDS011;61997;53.974;11.670;2023-07-08T04:13:27;4.20;;;3.00;;
73693;SDS011;61997;53.974;11.670;2023-07-08T04:15:54;3.47;;;2.70;;
73693;SDS011;61997;53.974;11.670;2023-07-08T04:18:22;4.18;;;2.92;;
73693;SDS011;61997;53.974;11.670;2023-07-08T04:20:47;3.38;;;2.50;;
73693;SDS011;61997;53.974;11.670;2023-07-08T04:23:20;4.53;;;2.92;;
73693;SDS011;61997;53.974;11.670;2023-07-08T04:25:47;3.97;;;2.40;;
73693;SDS011;61997;53.974;11.670;2023-07-08T04:28:15;4.28;;;2.95;;
73693;SDS011;61997;53.974;11.670;2023-07-08T04:30:41;3.47;;;2.58;;
73693;SDS011;61997;53.974;11.670;2023-07-08T04:33:07;3.50;;;2.75;;
73693;SDS011;61997;53.974;11.670;2023-07-08T04:35:34;3.92;;;3.30;;
73693;SDS011;61997;53.974;11.670;2023-07-08T04:38:01;4.90;;;2.80;;
73693;SDS011;61997;53.974;11.670;2023-07-08T04:40:34;4.53;;;2.63;;
73693;SDS011;61997;53.974;11.670;2023-07-08T04:43:02;3.50;;;2.47;;
73693;SDS011;61997;53.974;11.670;2023-07-08T04:45:28;4.28;;;2.67;;
73693;SDS011;61997;53.974;11.670;2023-07-08T04:47:53;4.18;;;2.85;;
73693;SDS011;61997;53.974;11.670;2023-07-08T04:50:18;5.07;;;2.90;;
73693;SDS011;61997;53.974;11.670;2023-07-08T04:52:44;3.80;;;2.67;;
73693;SDS011;61997;53.974;11.670;2023-07-08T04:55:11;4.38;;;3.05;;
73693;SDS011;61997;53.974;11.670;2023-07-08T04:57:38;3.67;;;2.75;;
73693;SDS011;61997;53.974;11.670;2023-07-08T05:00:04;3.20;;;2.38;;
73693;SDS011;61997;53.974;11.670;2023-07-08T05:02:34;4.30;;;2.90;;
73693;SDS011;61997;53.974;11.670;2023-07-08T05:04:59;4.50;;;2.95;;
73693;SDS011;61997;53.974;11.670;2023-07-08T05:07:24;4.13;;;2.70;;
73693;SDS011;61997;53.974;11.670;2023-07-08T05:09:50;3.95;;;2.65;;
73693;SDS011;61997;53.974;11.670;2023-07-08T05:12:16;3.67;;;2.55;;
73693;SDS011;61997;53.974;11.670;2023-07-08T05:14:41;4.30;;;2.70;;
73693;SDS011;61997;53.974;11.670;2023-07-08T05:17:07;3.83;;;2.63;;
73693;SDS011;61997;53.974;11.670;2023-07-08T05:19:33;3.97;;;2.67;;
73693;SDS011;61997;53.974;11.670;2023-07-08T05:21:58;2.88;;;2.33;;
73693;SDS011;61997;53.974;11.670;2023-07-08T05:24:24;3.70;;;2.70;;
73693;SDS011;61997;53.974;11.670;2023-07-08T05:26:49;3.08;;;2.47;;
73693;SDS011;61997;53.974;11.670;2023-07-08T05:29:14;3.50;;;2.53;;
73693;SDS011;61997;53.974;11.670;2023-07-08T05:31:40;3.22;;;2.42;;
73693;SDS011;61997;53.974;11.670;2023-07-08T05:34:05;3.88;;;2.42;;
73693;SDS011;61997;53.974;11.670;2023-07-08T05:36:30;4.25;;;2.83;;
73693;SDS011;61997;53.974;11.670;2023-07-08T05:38:56;3.45;;;3.03;;
73693;SDS011;61997;53.974;11.670;2023-07-08T05:41:22;4.70;;;2.60;;
73693;SDS011;61997;53.974;11.670;2023-07-08T05:43:47;3.50;;;2.40;;
73693;SDS011;61997;53.974;11.670;2023-07-08T05:46:13;3.53;;;2.45;;
73693;SDS011;61997;53.974;11.670;2023-07-08T05:48:38;3.20;;;2.35;;
73693;SDS011;61997;53.974;11.670;2023-07-08T05:51:04;3.65;;;2.58;;
73693;SDS011;61997;53.974;11.670;2023-07-08T05:53:30;3.65;;;2.30;;
73693;SDS011;61997;53.974;11.670;2023-07-08T05:55:55;3.58;;;2.22;;
73693;SDS011;61997;53.974;11.670;2023-07-08T05:58:21;4.05;;;2.20;;
73693;SDS011;61997;53.974;11.670;2023-07-08T06:00:46;3.47;;;2.25;;
73693;SDS011;61997;53.974;11.670;2023-07-08T06:03:11;3.30;;;2.47;;
73693;SDS011;61997;53.974;11.670;2023-07-08T06:05:37;3.30;;;2.33;;
73693;SDS011;61997;53.974;11.670;2023-07-08T06:08:03;3.70;;;2.45;;
73693;SDS011;61997;53.974;11.670;2023-07-08T06:10:29;3.75;;;2.42;;
73693;SDS011;61997;53.974;11.670;2023-07-08T06:12:54;3.00;;;2.08;;
73693;SDS011;61997;53.974;11.670;2023-07-08T06:15:19;3.70;;;2.72;;
73693;SDS011;61997;53.974;11.670;2023-07-08T06:17:45;3.55;;;2.47;;
73693;SDS011;61997;53.974;11.670;2023-07-08T06:20:10;2.42;;;1.85;;
73693;SDS011;61997;53.974;11.670;2023-07-08T06:22:36;3.60;;;1.83;;
73693;SDS011;61997;53.974;11.670;2023-07-08T06:25:01;3.88;;;2.42;;
73693;SDS011;61997;53.974;11.670;2023-07-08T06:27:27;3.53;;;2.10;;
73693;SDS011;61997;53.974;11.670;2023-07-08T06:29:53;3.45;;;2.13;;
73693;SDS011;61997;53.974;11.670;2023-07-08T06:32:18;2.53;;;1.85;;
73693;SDS011;61997;53.974;11.670;2023-07-08T06:34:44;2.58;;;1.92;;
73693;SDS011;61997;53.974;11.670;2023-07-08T06:37:09;2.72;;;1.98;;
73693;SDS011;61997;53.974;11.670;2023-07-08T06:39:35;2.60;;;2.03;;
73693;SDS011;61997;53.974;11.670;2023-07-08T06:42:00;2.65;;;1.90;;
73693;SDS011;61997;53.974;11.670;2023-07-08T06:44:25;2.22;;;1.75;;
73693;SDS011;61997;53.974;11.670;2023-07-08T06:46:51;2.72;;;1.92;;
73693;SDS011;61997;53.974;11.670;2023-07-08T06:49:17;2.25;;;1.73;;
73693;SDS011;61997;53.974;11.670;2023-07-08T06:51:42;2.50;;;1.92;;
73693;SDS011;61997;53.974;11.670;2023-07-08T06:54:10;3.45;;;2.22;;
73693;SDS011;61997;53.974;11.670;2023-07-08T06:56:39;2.50;;;1.98;;
73693;SDS011;61997;53.974;11.670;2023-07-08T06:59:05;2.47;;;1.75;;
73693;SDS011;61997;53.974;11.670;2023-07-08T07:01:31;3.13;;;2.00;;
73693;SDS011;61997;53.974;11.670;2023-07-08T07:03:56;3.25;;;2.05;;
73693;SDS011;61997;53.974;11.670;2023-07-08T07:06:22;2.67;;;1.92;;
73693;SDS011;61997;53.974;11.670;2023-07-08T07:08:47;2.85;;;1.80;;
73693;SDS011;61997;53.974;11.670;2023-07-08T07:11:13;2.70;;;2.00;;
73693;SDS011;61997;53.974;11.670;2023-07-08T07:13:38;2.95;;;1.85;;
73693;SDS011;61997;53.974;11.670;2023-07-08T07:16:04;2.50;;;1.85;;
73693;SDS011;61997;53.974;11.670;2023-07-08T07:18:29;2.78;;;1.83;;
73693;SDS011;61997;53.974;11.670;2023-07-08T07:20:55;2.90;;;1.90;;
73693;SDS011;61997;53.974;11.670;2023-07-08T07:23:21;2.85;;;1.92;;
73693;SDS011;61997;53.974;11.670;2023-07-08T07:25:46;2.13;;;1.70;;
73693;SDS011;61997;53.974;11.670;2023-07-08T07:28:15;2.40;;;1.55;;
73693;SDS011;61997;53.974;11.670;2023-07-08T07:30:42;2.75;;;2.00;;
73693;SDS011;61997;53.974;11.670;2023-07-08T07:33:11;3.22;;;2.22;;
73693;SDS011;61997;53.974;11.670;2023-07-08T07:35:41;3.20;;;1.80;;
73693;SDS011;61997;53.974;11.670;2023-07-08T07:38:08;2.20;;;1.73;;
73693;SDS011;61997;53.974;11.670;2023-07-08T07:40:33;2.25;;;1.83;;
73693;SDS011;61997;53.974;11.670;2023-07-08T07:42:59;2.97;;;1.90;;
73693;SDS011;61997;53.974;11.670;2023-07-08T07:45:24;3.17;;;1.92;;
73693;SDS011;61997;53.974;11.670;2023-07-08T07:47:50;2.10;;;1.90;;
73693;SDS011;61997;53.974;11.670;2023-07-08T07:50:15;3.13;;;2.35;;
73693;SDS011;61997;53.974;11.670;2023-07-08T07:52:40;2.83;;;2.03;;
73693;SDS011;61997;53.974;11.670;2023-07-08T07:55:06;3.90;;;2.20;;
73693;SDS011;61997;53.974;11.670;2023-07-08T07:57:32;4.05;;;2.30;;
73693;SDS011;61997;53.974;11.670;2023-07-08T07:59:58;2.78;;;1.95;;
73693;SDS011;61997;53.974;11.670;2023-07-08T08:02:23;2.90;;;1.90;;
73693;SDS011;61997;53.974;11.670;2023-07-08T08:04:48;2.85;;;2.08;;
73693;SDS011;61997;53.974;11.670;2023-07-08T08:07:14;2.35;;;1.92;;
73693;SDS011;61997;53.974;11.670;2023-07-08T08:09:39;3.55;;;2.15;;
73693;SDS011;61997;53.974;11.670;2023-07-08T08:12:06;2.45;;;2.00;;
73693;SDS011;61997;53.974;11.670;2023-07-08T08:14:33;2.40;;;2.08;;
73693;SDS011;61997;53.974;11.670;2023-07-08T08:16:58;3.08;;;2.00;;
73693;SDS011;61997;53.974;11.670;2023-07-08T08:19:24;3.72;;;2.30;;
73693;SDS011;61997;53.974;11.670;2023-07-08T08:21:49;3.33;;;2.10;;
73693;SDS011;61997;53.974;11.670;2023-07-08T08:24:14;3.13;;;2.10;;
73693;SDS011;61997;53.974;11.670;2023-07-08T08:26:40;3.38;;;2.00;;
73693;SDS011;61997;53.974;11.670;2023-07-08T08:29:05;3.90;;;2.33;;
73693;SDS011;61997;53.974;11.670;2023-07-08T08:31:31;3.10;;;2.30;;
73693;SDS011;61997;53.974;11.670;2023-07-08T08:33:57;3.25;;;2.17;;
73693;SDS011;61997;53.974;11.670;2023-07-08T08:36:22;2.25;;;1.75;;
73693;SDS011;61997;53.974;11.670;2023-07-08T08:38:48;3.33;;;1.98;;
73693;SDS011;61997;53.974;11.670;2023-07-08T08:41:14;3.28;;;2.35;;
73693;SDS011;61997;53.974;11.670;2023-07-08T08:43:43;3.85;;;2.25;;
73693;SDS011;61997;53.974;11.670;2023-07-08T08:51:41;2.72;;;2.08;;
73693;SDS011;61997;53.974;11.670;2023-07-08T08:54:06;4.00;;;2.55;;
73693;SDS011;61997;53.974;11.670;2023-07-08T09:05:06;3.45;;;1.95;;
73693;SDS011;61997;53.974;11.670;2023-07-08T09:13:16;3.28;;;2.10;;
73693;SDS011;61997;53.974;11.670;2023-07-08T09:15:44;3.83;;;2.25;;
73693;SDS011;61997;53.974;11.670;2023-07-08T09:18:25;2.80;;;1.88;;
73693;SDS011;61997;53.974;11.670;2023-07-08T09:20:52;3.42;;;2.10;;
73693;SDS011;61997;53.974;11.670;2023-07-08T09:23:22;3.72;;;2.13;;
73693;SDS011;61997;53.974;11.670;2023-07-08T09:25:56;2.60;;;2.00;;
73693;SDS011;61997;53.974;11.670;2023-07-08T09:28:43;3.78;;;2.38;;
73693;SDS011;61997;53.974;11.670;2023-07-08T09:31:23;3.38;;;2.20;;
73693;SDS011;61997;53.974;11.670;2023-07-08T09:36:42;2.20;;;1.73;;
73693;SDS011;61997;53.974;11.670;2023-07-08T09:39:10;2.63;;;2.00;;
73693;SDS011;61997;53.974;11.670;2023-07-08T09:41:38;3.40;;;2.50;;
73693;SDS011;61997;53.974;11.670;2023-07-08T09:46:54;3.15;;;2.17;;
73693;SDS011;61997;53.974;11.670;2023-07-08T09:54:27;3.15;;;2.40;;
73693;SDS011;61997;53.974;11.670;2023-07-08T09:57:00;2.80;;;2.22;;
73693;SDS011;61997;53.974;11.670;2023-07-08T09:59:38;2.80;;;1.92;;
73693;SDS011;61997;53.974;11.670;2023-07-08T10:02:22;3.80;;;2.20;;
73693;SDS011;61997;53.974;11.670;2023-07-08T10:04:55;2.83;;;2.13;;
73693;SDS011;61997;53.974;11.670;2023-07-08T10:07:23;3.10;;;2.30;;
73693;SDS011;61997;53.974;11.670;2023-07-08T10:09:50;4.15;;;2.33;;
73693;SDS011;61997;53.974;11.670;2023-07-08T10:12:19;4.20;;;2.22;;
73693;SDS011;61997;53.974;11.670;2023-07-08T10:14:52;3.55;;;2.63;;
73693;SDS011;61997;53.974;11.670;2023-07-08T10:17:21;2.92;;;2.03;;
73693;SDS011;61997;53.974;11.670;2023-07-08T10:19:47;3.00;;;2.05;;
73693;SDS011;61997;53.974;11.670;2023-07-08T10:27:54;2.88;;;2.15;;
73693;SDS011;61997;53.974;11.670;2023-07-08T10:30:24;4.22;;;2.22;;
73693;SDS011;61997;53.974;11.670;2023-07-08T10:36:16;2.95;;;2.00;;
73693;SDS011;61997;53.974;11.670;2023-07-08T10:41:52;2.85;;;2.25;;
73693;SDS011;61997;53.974;11.670;2023-07-08T10:44:26;2.53;;;2.10;;
73693;SDS011;61997;53.974;11.670;2023-07-08T10:49:42;3.53;;;2.50;;
73693;SDS011;61997;53.974;11.670;2023-07-08T10:55:08;2.80;;;2.03;;
73693;SDS011;61997;53.974;11.670;2023-07-08T11:05:45;3.60;;;2.45;;
73693;SDS011;61997;53.974;11.670;2023-07-08T11:08:30;3.22;;;2.38;;
73693;SDS011;61997;53.974;11.670;2023-07-08T11:11:32;2.75;;;2.15;;
73693;SDS011;61997;53.974;11.670;2023-07-08T11:13:53;3.85;;;2.40;;
73693;SDS011;61997;53.974;11.670;2023-07-08T11:21:35;2.92;;;2.10;;
73693;SDS011;61997;53.974;11.670;2023-07-08T11:24:12;3.92;;;2.83;;
73693;SDS011;61997;53.974;11.670;2023-07-08T11:29:51;3.45;;;2.47;;
73693;SDS011;61997;53.974;11.670;2023-07-08T11:32:23;4.30;;;2.97;;
73693;SDS011;61997;53.974;11.670;2023-07-08T11:34:51;3.25;;;2.40;;
73693;SDS011;61997;53.974;11.670;2023-07-08T11:37:18;2.95;;;2.42;;
73693;SDS011;61997;53.974;11.670;2023-07-08T11:39:47;3.45;;;2.78;;
73693;SDS011;61997;53.974;11.670;2023-07-08T11:42:20;2.80;;;2.20;;
73693;SDS011;61997;53.974;11.670;2023-07-08T11:44:56;3.78;;;2.50;;
73693;SDS011;61997;53.974;11.670;2023-07-08T11:47:35;2.85;;;2.33;;
73693;SDS011;61997;53.974;11.670;2023-07-08T11:50:03;3.42;;;2.70;;
73693;SDS011;61997;53.974;11.670;2023-07-08T11:52:31;3.15;;;2.65;;
73693;SDS011;61997;53.974;11.670;2023-07-08T11:55:00;2.83;;;2.28;;
73693;SDS011;61997;53.974;11.670;2023-07-08T11:57:30;2.92;;;2.33;;
73693;SDS011;61997;53.974;11.670;2023-07-08T12:00:17;3.55;;;2.53;;
73693;SDS011;61997;53.974;11.670;2023-07-08T12:02:54;3.55;;;2.33;;
73693;SDS011;61997;53.974;11.670;2023-07-08T12:05:31;3.90;;;2.72;;
73693;SDS011;61997;53.974;11.670;2023-07-08T12:08:00;3.42;;;2.55;;
73693;SDS011;61997;53.974;11.670;2023-07-08T12:10:33;3.33;;;2.30;;
73693;SDS011;61997;53.974;11.670;2023-07-08T12:13:00;3.42;;;2.50;;
73693;SDS011;61997;53.974;11.670;2023-07-08T12:15:27;3.67;;;2.70;;
73693;SDS011;61997;53.974;11.670;2023-07-08T12:17:58;3.50;;;2.50;;
73693;SDS011;61997;53.974;11.670;2023-07-08T12:20:30;2.70;;;2.20;;
73693;SDS011;61997;53.974;11.670;2023-07-08T12:22:58;3.47;;;2.80;;
73693;SDS011;61997;53.974;11.670;2023-07-08T12:25:31;3.40;;;2.47;;
73693;SDS011;61997;53.974;11.670;2023-07-08T12:27:57;3.63;;;2.50;;
73693;SDS011;61997;53.974;11.670;2023-07-08T12:30:23;3.88;;;2.55;;
73693;SDS011;61997;53.974;11.670;2023-07-08T12:32:50;3.45;;;2.50;;
73693;SDS011;61997;53.974;11.670;2023-07-08T12:35:21;3.25;;;2.63;;
73693;SDS011;61997;53.974;11.670;2023-07-08T12:37:49;3.88;;;2.70;;
73693;SDS011;61997;53.974;11.670;2023-07-08T12:40:20;3.05;;;2.35;;
73693;SDS011;61997;53.974;11.670;2023-07-08T12:42:47;3.28;;;2.20;;
73693;SDS011;61997;53.974;11.670;2023-07-08T12:45:16;3.53;;;2.15;;
73693;SDS011;61997;53.974;11.670;2023-07-08T12:47:44;3.47;;;2.33;;
73693;SDS011;61997;53.974;11.670;2023-07-08T12:50:10;2.83;;;2.47;;
73693;SDS011;61997;53.974;11.670;2023-07-08T12:52:36;2.60;;;2.08;;
73693;SDS011;61997;53.974;11.670;2023-07-08T12:55:01;2.95;;;2.40;;
73693;SDS011;61997;53.974;11.670;2023-07-08T12:57:27;2.75;;;2.15;;
73693;SDS011;61997;53.974;11.670;2023-07-08T12:59:52;2.65;;;2.05;;
73693;SDS011;61997;53.974;11.670;2023-07-08T13:02:19;2.63;;;2.22;;
73693;SDS011;61997;53.974;11.670;2023-07-08T13:04:47;3.10;;;2.50;;
73693;SDS011;61997;53.974;11.670;2023-07-08T13:07:25;2.72;;;2.05;;
73693;SDS011;61997;53.974;11.670;2023-07-08T13:09:57;2.63;;;2.20;;
73693;SDS011;61997;53.974;11.670;2023-07-08T13:12:24;3.45;;;2.03;;
73693;SDS011;61997;53.974;11.670;2023-07-08T13:14:51;2.90;;;2.03;;
73693;SDS011;61997;53.974;11.670;2023-07-08T13:17:18;2.65;;;2.10;;
73693;SDS011;61997;53.974;11.670;2023-07-08T13:19:44;3.00;;;2.28;;
73693;SDS011;61997;53.974;11.670;2023-07-08T13:22:12;4.10;;;2.40;;
73693;SDS011;61997;53.974;11.670;2023-07-08T13:24:41;2.40;;;2.00;;
73693;SDS011;61997;53.974;11.670;2023-07-08T13:27:08;3.10;;;2.17;;
73693;SDS011;61997;53.974;11.670;2023-07-08T13:29:38;3.22;;;2.10;;
73693;SDS011;61997;53.974;11.670;2023-07-08T13:32:04;2.58;;;2.13;;
73693;SDS011;61997;53.974;11.670;2023-07-08T13:34:32;2.78;;;2.05;;
73693;SDS011;61997;53.974;11.670;2023-07-08T13:36:57;3.65;;;2.03;;
73693;SDS011;61997;53.974;11.670;2023-07-08T13:39:26;3.22;;;1.98;;
73693;SDS011;61997;53.974;11.670;2023-07-08T13:41:53;2.42;;;1.80;;
73693;SDS011;61997;53.974;11.670;2023-07-08T13:44:19;3.50;;;2.00;;
73693;SDS011;61997;53.974;11.670;2023-07-08T13:46:49;3.42;;;2.20;;
73693;SDS011;61997;53.974;11.670;2023-07-08T13:51:45;3.53;;;1.88;;
73693;SDS011;61997;53.974;11.670;2023-07-08T13:54:31;2.75;;;1.83;;
73693;SDS011;61997;53.974;11.670;2023-07-08T13:57:00;3.10;;;1.92;;
73693;SDS011;61997;53.974;11.670;2023-07-08T13:59:26;2.80;;;1.90;;
73693;SDS011;61997;53.974;11.670;2023-07-08T14:01:52;2.13;;;1.67;;
73693;SDS011;61997;53.974;11.670;2023-07-08T14:04:21;3.17;;;2.42;;
73693;SDS011;61997;53.974;11.670;2023-07-08T14:06:51;3.22;;;2.35;;
73693;SDS011;61997;53.974;11.670;2023-07-08T14:09:17;2.10;;;1.85;;
73693;SDS011;61997;53.974;11.670;2023-07-08T14:11:44;2.72;;;2.05;;
73693;SDS011;61997;53.974;11.670;2023-07-08T14:14:10;3.40;;;2.08;;
73693;SDS011;61997;53.974;11.670;2023-07-08T14:16:56;3.33;;;2.00;;
73693;SDS011;61997;53.974;11.670;2023-07-08T14:19:25;2.55;;;1.88;;
73693;SDS011;61997;53.974;11.670;2023-07-08T14:21:54;2.63;;;2.10;;
73693;SDS011;61997;53.974;11.670;2023-07-08T14:24:21;2.70;;;2.05;;
73693;SDS011;61997;53.974;11.670;2023-07-08T14:26:47;3.88;;;1.90;;
73693;SDS011;61997;53.974;11.670;2023-07-08T14:29:12;2.78;;;2.13;;
73693;SDS011;61997;53.974;11.670;2023-07-08T14:31:38;2.42;;;1.83;;
73693;SDS011;61997;53.974;11.670;2023-07-08T14:34:07;2.53;;;1.70;;
73693;SDS011;61997;53.974;11.670;2023-07-08T14:36:34;2.95;;;1.98;;
73693;SDS011;61997;53.974;11.670;2023-07-08T14:39:00;3.00;;;1.92;;
73693;SDS011;61997;53.974;11.670;2023-07-08T14:41:26;3.92;;;2.22;;
73693;SDS011;61997;53.974;11.670;2023-07-08T14:43:52;3.63;;;2.38;;
73693;SDS011;61997;53.974;11.670;2023-07-08T14:46:18;2.85;;;2.22;;
73693;SDS011;61997;53.974;11.670;2023-07-08T14:48:44;2.42;;;2.08;;
73693;SDS011;61997;53.974;11.670;2023-07-08T14:51:09;3.28;;;2.63;;
73693;SDS011;61997;53.974;11.670;2023-07-08T14:53:35;3.58;;;2.00;;
73693;SDS011;61997;53.974;11.670;2023-07-08T14:56:00;3.92;;;2.35;;
73693;SDS011;61997;53.974;11.670;2023-07-08T14:58:31;3.28;;;2.30;;
73693;SDS011;61997;53.974;11.670;2023-07-08T15:00:58;3.03;;;2.10;;
73693;SDS011;61997;53.974;11.670;2023-07-08T15:03:25;3.33;;;2.10;;
73693;SDS011;61997;53.974;11.670;2023-07-08T15:05:51;3.60;;;2.15;;
73693;SDS011;61997;53.974;11.670;2023-07-08T15:08:17;2.78;;;2.10;;
73693;SDS011;61997;53.974;11.670;2023-07-08T15:10:44;2.58;;;1.80;;
73693;SDS011;61997;53.974;11.670;2023-07-08T15:13:13;2.53;;;1.75;;
73693;SDS011;61997;53.974;11.670;2023-07-08T15:15:39;3.05;;;1.98;;
73693;SDS011;61997;53.974;11.670;2023-07-08T15:18:14;3.20;;;2.08;;
73693;SDS011;61997;53.974;11.670;2023-07-08T15:20:41;3.97;;;2.00;;
73693;SDS011;61997;53.974;11.670;2023-07-08T15:23:07;2.63;;;2.00;;
73693;SDS011;61997;53.974;11.670;2023-07-08T15:25:33;2.78;;;1.70;;
73693;SDS011;61997;53.974;11.670;2023-07-08T15:27:59;2.97;;;2.08;;
73693;SDS011;61997;53.974;11.670;2023-07-08T15:30:26;2.92;;;2.00;;
73693;SDS011;61997;53.974;11.670;2023-07-08T15:32:53;3.88;;;2.08;;
73693;SDS011;61997;53.974;11.670;2023-07-08T15:35:23;2.20;;;1.80;;
73693;SDS011;61997;53.974;11.670;2023-07-08T15:37:50;2.55;;;1.88;;
73693;SDS011;61997;53.974;11.670;2023-07-08T15:40:17;2.88;;;2.08;;
73693;SDS011;61997;53.974;11.670;2023-07-08T15:42:48;2.33;;;1.75;;
73693;SDS011;61997;53.974;11.670;2023-07-08T15:45:19;2.75;;;1.65;;
73693;SDS011;61997;53.974;11.670;2023-07-08T15:47:47;3.28;;;2.17;;